createdAt,value
2022-10-08T00:01:18.073Z,13.65
2022-10-08T00:03:48.408Z,16.35
2022-10-08T00:06:30.079Z,13.55
2022-10-08T00:09:05.001Z,16.65
2022-10-08T00:11:36.422Z,13.50
2022-10-08T00:14:04.745Z,15.40
2022-10-08T00:16:41.197Z,16.25
2022-10-08T00:19:14.506Z,15.88
2022-10-08T00:21:44.486Z,18.88
2022-10-08T00:24:16.779Z,14.80
2022-10-08T00:26:44.799Z,16.65
2022-10-08T00:29:15.428Z,14.38
2022-10-08T00:31:46.035Z,19.98
2022-10-08T00:34:17.399Z,13.82
2022-10-08T00:36:44.964Z,14.23
2022-10-08T00:39:17.190Z,15.02
2022-10-08T00:41:49.081Z,15.32
2022-10-08T00:44:46.753Z,14.90
2022-10-08T00:47:32.894Z,14.45
2022-10-08T00:50:16.465Z,13.57
2022-10-08T00:52:56.048Z,14.00
2022-10-08T00:55:28.070Z,14.98
2022-10-08T00:58:02.064Z,15.00
2022-10-08T01:00:30.472Z,16.23
2022-10-08T01:02:58.060Z,13.13
2022-10-08T01:05:43.426Z,18.23
2022-10-08T01:08:29.893Z,15.98
2022-10-08T01:11:27.271Z,17.15
2022-10-08T01:14:16.200Z,13.00
2022-10-08T01:17:26.448Z,17.00
2022-10-08T01:20:38.222Z,14.10
2022-10-08T01:23:38.757Z,17.13
2022-10-08T01:26:39.104Z,15.27
2022-10-08T01:29:13.850Z,15.70
2022-10-08T01:31:46.448Z,13.98
2022-10-08T01:34:24.190Z,15.77
2022-10-08T01:36:53.559Z,14.68
2022-10-08T01:39:25.996Z,13.15
2022-10-08T01:41:58.777Z,16.33
2022-10-08T01:44:43.378Z,15.43
2022-10-08T01:47:14.443Z,26.08
2022-10-08T01:49:49.891Z,13.68
2022-10-08T01:52:33.939Z,14.00
2022-10-08T01:55:13.617Z,16.17
2022-10-08T01:57:41.828Z,17.40
2022-10-08T02:00:13.864Z,15.32
2022-10-08T02:02:42.130Z,15.88
2022-10-08T02:05:09.905Z,17.13
2022-10-08T02:07:42.713Z,16.33
2022-10-08T02:10:21.577Z,19.88
2022-10-08T02:12:48.917Z,14.85
2022-10-08T02:16:02.820Z,17.77
2022-10-08T02:18:48.704Z,15.02
2022-10-08T02:21:24.860Z,15.40
2022-10-08T02:24:17.775Z,13.50
2022-10-08T02:26:53.299Z,21.55
2022-10-08T02:29:37.139Z,18.02
2022-10-08T02:32:22.289Z,15.60
2022-10-08T02:35:01.947Z,17.05
2022-10-08T02:37:40.110Z,16.55
2022-10-08T02:40:12.388Z,16.45
2022-10-08T02:42:45.112Z,15.45
2022-10-08T02:45:26.964Z,17.20
2022-10-08T02:48:04.342Z,13.05
2022-10-08T02:50:35.921Z,14.73
2022-10-08T02:53:03.615Z,22.02
2022-10-08T02:55:44.643Z,13.57
2022-10-08T02:58:13.539Z,15.18
2022-10-08T03:00:51.524Z,14.32
2022-10-08T03:03:33.522Z,15.32
2022-10-08T03:06:06.948Z,14.27
2022-10-08T03:08:38.963Z,18.00
2022-10-08T03:11:06.862Z,15.23
2022-10-08T03:13:41.720Z,13.90
2022-10-08T03:16:11.431Z,18.50
2022-10-08T03:18:39.830Z,16.30
2022-10-08T03:21:10.866Z,16.45
2022-10-08T03:23:37.769Z,15.38
2022-10-08T03:26:04.945Z,17.92
2022-10-08T03:28:32.083Z,19.90
2022-10-08T03:31:03.298Z,14.77
2022-10-08T03:33:30.390Z,19.23
2022-10-08T03:35:59.283Z,16.17
2022-10-08T03:38:26.354Z,21.63
2022-10-08T03:40:58.623Z,16.45
2022-10-08T03:43:32.007Z,14.65
2022-10-08T03:45:58.987Z,18.77
2022-10-08T03:48:25.959Z,16.55
2022-10-08T03:50:59.344Z,15.43
2022-10-08T03:53:28.144Z,16.20
2022-10-08T03:55:55.309Z,16.00
2022-10-08T03:58:22.893Z,15.88
2022-10-08T04:01:00.154Z,11.90
2022-10-08T04:03:28.590Z,19.83
2022-10-08T04:05:56.080Z,16.40
2022-10-08T04:08:23.373Z,17.55
2022-10-08T04:10:50.499Z,20.25
2022-10-08T04:13:18.452Z,16.45
2022-10-08T04:15:50.889Z,20.02
2022-10-08T04:18:18.402Z,19.17
2022-10-08T04:20:45.757Z,18.20
2022-10-08T04:23:12.790Z,17.65
2022-10-08T04:25:50.981Z,12.95
2022-10-08T04:28:18.222Z,16.80
2022-10-08T04:31:06.662Z,17.63
2022-10-08T04:33:35.386Z,12.85
2022-10-08T04:36:11.001Z,16.30
2022-10-08T04:38:38.248Z,13.82
2022-10-08T04:41:12.415Z,16.02
2022-10-08T04:43:41.444Z,15.45
2022-10-08T04:46:11.475Z,17.33
2022-10-08T04:48:39.150Z,18.13
2022-10-08T04:51:10.644Z,15.52
2022-10-08T04:53:38.600Z,16.30
2022-10-08T04:56:22.964Z,14.98
2022-10-08T04:58:50.424Z,17.08
2022-10-08T05:01:20.115Z,20.15
2022-10-08T05:03:52.801Z,16.77
2022-10-08T05:06:23.819Z,16.67
2022-10-08T05:08:51.623Z,15.63
2022-10-08T05:11:19.635Z,21.80
2022-10-08T05:13:52.106Z,17.40
2022-10-08T05:16:20.228Z,22.77
2022-10-08T05:18:47.960Z,16.02
2022-10-08T05:21:18.938Z,18.92
2022-10-08T05:23:46.298Z,17.45
2022-10-08T05:26:35.936Z,20.42
2022-10-08T05:29:11.245Z,19.45
2022-10-08T05:31:38.821Z,20.38
2022-10-08T05:34:06.447Z,18.90
2022-10-08T05:36:34.495Z,15.20
2022-10-08T05:39:04.783Z,18.20
2022-10-08T05:41:35.673Z,16.67
2022-10-08T05:44:03.130Z,18.42
2022-10-08T05:46:32.783Z,16.83
2022-10-08T05:49:02.557Z,18.20
2022-10-08T05:51:30.454Z,23.00
2022-10-08T05:54:00.122Z,18.25
2022-10-08T05:56:28.289Z,18.67
2022-10-08T05:58:55.425Z,18.13
2022-10-08T06:01:29.407Z,16.83
2022-10-08T06:04:06.987Z,19.00
2022-10-08T06:06:37.685Z,18.73
2022-10-08T06:09:06.165Z,14.52
2022-10-08T06:11:36.347Z,21.77
2022-10-08T06:14:07.117Z,20.30
2022-10-08T06:16:35.637Z,19.05
2022-10-08T06:19:04.390Z,16.88
2022-10-08T06:21:32.142Z,22.02
2022-10-08T06:24:02.873Z,18.90
2022-10-08T06:26:36.988Z,23.15
2022-10-08T06:29:11.089Z,16.23
2022-10-08T06:31:38.135Z,22.13
2022-10-08T06:34:05.741Z,21.33
2022-10-08T06:36:34.378Z,16.15
2022-10-08T06:39:05.886Z,26.10
2022-10-08T06:41:35.134Z,24.52
2022-10-08T06:44:08.655Z,19.15
2022-10-08T06:46:35.937Z,13.48
2022-10-08T06:49:03.775Z,16.85
2022-10-08T06:51:30.931Z,18.95
2022-10-08T06:54:04.340Z,20.50
2022-10-08T06:56:33.830Z,21.30
2022-10-08T06:59:00.785Z,20.00
2022-10-08T07:01:33.148Z,19.90
2022-10-08T07:04:02.050Z,18.33
2022-10-08T07:06:29.098Z,19.25
2022-10-08T07:09:00.461Z,18.25
2022-10-08T07:11:28.589Z,21.48
2022-10-08T07:13:56.533Z,17.83
2022-10-08T07:16:26.541Z,21.40
2022-10-08T07:18:56.202Z,15.02
2022-10-08T07:21:23.410Z,22.85
2022-10-08T07:23:51.033Z,16.27
2022-10-08T07:26:21.563Z,20.10
2022-10-08T07:29:05.201Z,20.70
2022-10-08T07:31:35.849Z,24.30
2022-10-08T07:34:11.571Z,24.83
2022-10-08T07:36:39.743Z,23.63
2022-10-08T07:39:19.200Z,15.80
2022-10-08T07:41:47.567Z,17.00
2022-10-08T07:44:16.112Z,23.83
2022-10-08T07:46:46.792Z,16.83
2022-10-08T07:49:14.949Z,19.35
2022-10-08T07:51:41.918Z,29.35
2022-10-08T07:54:11.780Z,18.15
2022-10-08T07:56:38.739Z,15.68
2022-10-08T07:59:06.666Z,20.50
2022-10-08T08:01:34.350Z,14.88
2022-10-08T08:04:05.972Z,21.00
2022-10-08T08:06:37.749Z,14.60
2022-10-08T08:09:04.744Z,20.40
2022-10-08T08:11:31.958Z,16.67
2022-10-08T08:13:59.042Z,17.65
2022-10-08T08:16:28.531Z,16.38
2022-10-08T08:18:59.319Z,18.55
2022-10-08T08:21:35.693Z,19.30
2022-10-08T08:24:12.995Z,17.33
2022-10-08T08:26:42.489Z,17.25
2022-10-08T08:29:13.559Z,14.38
2022-10-08T08:31:47.308Z,19.80
2022-10-08T08:34:19.528Z,16.13
2022-10-08T08:36:49.477Z,15.43
2022-10-08T08:39:24.333Z,22.63
2022-10-08T08:42:08.852Z,13.90
2022-10-08T08:44:48.855Z,15.52
2022-10-08T08:47:37.169Z,15.27
2022-10-08T08:50:29.819Z,14.18
2022-10-08T08:52:57.450Z,16.10
2022-10-08T08:55:37.413Z,13.38
2022-10-08T08:58:42.157Z,16.52
2022-10-08T09:01:09.097Z,13.18
2022-10-08T09:03:52.705Z,15.13
2022-10-08T09:06:25.959Z,16.13
2022-10-08T09:09:23.512Z,13.30
2022-10-08T09:11:51.070Z,11.68
2022-10-08T09:14:40.804Z,18.70
2022-10-08T09:17:20.945Z,11.60
2022-10-08T09:19:49.233Z,15.25
2022-10-08T09:22:27.919Z,13.95
2022-10-08T09:25:03.329Z,15.05
2022-10-08T09:27:58.304Z,12.27
2022-10-08T09:30:25.790Z,13.00
2022-10-08T09:32:55.267Z,10.70
2022-10-08T09:35:23.054Z,10.35
2022-10-08T09:37:51.414Z,14.30
2022-10-08T09:40:27.766Z,14.73
2022-10-08T09:43:12.780Z,12.95
2022-10-08T09:45:42.684Z,13.23
2022-10-08T09:48:29.907Z,19.15
2022-10-08T09:51:05.302Z,13.55
2022-10-08T09:53:44.140Z,12.18
2022-10-08T09:56:13.985Z,16.08
2022-10-08T09:59:05.696Z,11.80
2022-10-08T10:01:32.936Z,15.90
2022-10-08T10:04:02.665Z,16.02
2022-10-08T10:06:38.605Z,12.75
2022-10-08T10:09:11.169Z,13.60
2022-10-08T10:11:42.034Z,13.60
2022-10-08T10:14:44.063Z,14.77
2022-10-08T10:17:17.420Z,15.15
2022-10-08T10:19:59.303Z,10.48
2022-10-08T10:22:48.511Z,11.18
2022-10-08T10:25:41.648Z,10.52
2022-10-08T10:28:21.066Z,10.57
2022-10-08T10:30:57.401Z,12.80
2022-10-08T10:33:47.347Z,13.98
2022-10-08T10:36:16.107Z,13.48
2022-10-08T10:38:56.178Z,20.02
2022-10-08T10:41:34.076Z,14.70
2022-10-08T10:44:13.167Z,10.18
2022-10-08T10:47:03.571Z,15.98
2022-10-08T10:49:38.386Z,10.52
2022-10-08T10:52:33.881Z,11.63
2022-10-08T10:55:16.251Z,13.13
2022-10-08T10:58:05.659Z,13.07
2022-10-08T11:01:12.369Z,12.00
2022-10-08T11:04:40.718Z,12.40
2022-10-08T11:07:37.368Z,10.90
2022-10-08T11:10:26.151Z,13.27
2022-10-08T11:13:22.282Z,11.05
2022-10-08T11:16:29.626Z,10.55
2022-10-08T11:19:03.090Z,11.48
2022-10-08T11:22:06.951Z,12.30
2022-10-08T11:25:21.618Z,14.68
2022-10-08T11:28:19.812Z,12.30
2022-10-08T11:31:11.276Z,12.35
2022-10-08T11:33:39.905Z,13.60
2022-10-08T11:36:37.563Z,13.80
2022-10-08T11:39:20.802Z,13.32
2022-10-08T11:42:48.151Z,15.95
2022-10-08T11:45:24.303Z,17.23
2022-10-08T11:47:57.526Z,13.07
2022-10-08T11:50:36.671Z,14.73
2022-10-08T11:53:15.158Z,14.82
2022-10-08T11:55:55.525Z,11.30
2022-10-08T11:58:33.217Z,13.43
2022-10-08T12:01:08.123Z,14.48
2022-10-08T12:03:43.233Z,16.17
2022-10-08T12:06:30.580Z,15.45
2022-10-08T12:09:07.664Z,16.42
2022-10-08T12:11:40.394Z,14.57
2022-10-08T12:14:15.749Z,15.65
2022-10-08T12:16:48.727Z,14.18
2022-10-08T12:19:38.641Z,16.95
2022-10-08T12:22:17.702Z,16.83
2022-10-08T12:24:49.586Z,17.02
2022-10-08T12:27:16.987Z,16.00
2022-10-08T12:30:25.187Z,14.05
2022-10-08T12:32:55.290Z,11.57
2022-10-08T12:35:29.073Z,17.90
2022-10-08T12:38:08.915Z,12.35
2022-10-08T12:41:00.135Z,12.73
2022-10-08T12:43:37.053Z,10.77
2022-10-08T12:46:40.064Z,11.73
2022-10-08T12:49:22.397Z,16.27
2022-10-08T12:52:21.011Z,13.13
2022-10-08T12:54:57.785Z,15.98
2022-10-08T12:57:39.351Z,14.27
2022-10-08T13:00:17.188Z,12.82
2022-10-08T13:02:44.366Z,15.80
2022-10-08T13:05:35.680Z,19.23
2022-10-08T13:08:35.150Z,15.23
2022-10-08T13:11:16.196Z,12.52
2022-10-08T13:13:45.627Z,14.80
2022-10-08T13:16:18.742Z,17.77
2022-10-08T13:18:58.415Z,17.30
2022-10-08T13:21:31.408Z,13.68
2022-10-08T13:24:00.168Z,15.88
2022-10-08T13:26:54.404Z,14.77
2022-10-08T13:29:24.358Z,14.23
2022-10-08T13:32:13.613Z,15.10
2022-10-08T13:34:40.556Z,16.50
2022-10-08T13:37:23.166Z,12.32
2022-10-08T13:39:59.452Z,18.08
2022-10-08T13:42:39.246Z,14.98
2022-10-08T13:45:18.469Z,18.40
2022-10-08T13:47:46.138Z,13.95
2022-10-08T13:50:13.914Z,11.82
2022-10-08T13:53:01.687Z,11.98
2022-10-08T13:55:33.399Z,18.27
2022-10-08T13:58:03.294Z,14.88
2022-10-08T14:00:34.568Z,13.82
2022-10-08T14:03:02.660Z,14.85
2022-10-08T14:05:32.613Z,18.23
2022-10-08T14:08:04.804Z,14.27
2022-10-08T14:10:32.734Z,17.33
2022-10-08T14:12:59.894Z,18.67
2022-10-08T14:15:26.881Z,12.35
2022-10-08T14:17:53.885Z,13.48
2022-10-08T14:20:20.946Z,17.50
2022-10-08T14:22:48.032Z,15.80
2022-10-08T14:25:22.781Z,13.88
2022-10-08T14:27:50.485Z,17.50
2022-10-08T14:30:18.906Z,11.63
2022-10-08T14:32:46.379Z,17.52
2022-10-08T14:35:13.635Z,17.05
2022-10-08T14:37:41.088Z,17.38
2022-10-08T14:40:13.806Z,13.85
2022-10-08T14:42:40.723Z,17.65
2022-10-08T14:45:08.120Z,11.48
2022-10-08T14:47:35.138Z,15.50
2022-10-08T14:50:02.283Z,16.23
2022-10-08T14:52:29.364Z,18.15
2022-10-08T14:54:56.274Z,19.35
2022-10-08T14:57:23.240Z,20.92
2022-10-08T14:59:50.184Z,14.07
2022-10-08T15:02:17.247Z,20.58
2022-10-08T15:04:44.290Z,23.00
2022-10-08T15:07:11.388Z,16.77
2022-10-08T15:09:40.584Z,22.52
2022-10-08T15:12:08.830Z,15.57
2022-10-08T15:14:38.255Z,27.88
2022-10-08T15:17:05.624Z,18.40
2022-10-08T15:19:32.596Z,19.45
2022-10-08T15:21:59.556Z,15.32
2022-10-08T15:24:26.500Z,15.88
2022-10-08T15:26:53.470Z,16.08
2022-10-08T15:29:20.559Z,16.98
2022-10-08T15:31:51.070Z,18.88
2022-10-08T15:34:20.210Z,18.30
2022-10-08T15:36:47.884Z,18.58
2022-10-08T15:39:18.786Z,18.20
2022-10-08T15:41:51.616Z,11.75
2022-10-08T15:44:31.023Z,17.17
2022-10-08T15:47:07.431Z,17.50
2022-10-08T15:49:38.143Z,18.17
2022-10-08T15:52:12.468Z,17.83
2022-10-08T15:54:40.961Z,16.50
2022-10-08T15:57:10.557Z,18.67
2022-10-08T15:59:37.733Z,19.95
2022-10-08T16:02:05.910Z,19.80
2022-10-08T16:04:33.406Z,17.77
2022-10-08T16:07:00.569Z,19.23
2022-10-08T16:09:28.654Z,19.60
2022-10-08T16:11:55.728Z,20.23
2022-10-08T16:14:25.854Z,20.90
2022-10-08T16:16:54.333Z,17.48
2022-10-08T16:19:25.116Z,20.98
2022-10-08T16:21:55.559Z,29.83
2022-10-08T16:24:23.234Z,20.20
2022-10-08T16:26:50.791Z,20.25
2022-10-08T16:29:19.068Z,14.85
2022-10-08T16:31:47.211Z,18.48
2022-10-08T16:34:20.843Z,18.23
2022-10-08T16:36:48.668Z,23.75
2022-10-08T16:39:20.023Z,20.40
2022-10-08T16:41:48.258Z,17.08
2022-10-08T16:44:19.462Z,19.33
2022-10-08T16:46:50.758Z,21.65
2022-10-08T16:49:26.043Z,20.50
2022-10-08T16:52:00.295Z,18.30
2022-10-08T16:54:28.640Z,21.48
2022-10-08T16:56:56.741Z,19.90
2022-10-08T16:59:27.790Z,17.92
2022-10-08T17:01:57.939Z,24.88
2022-10-08T17:04:27.855Z,20.55
2022-10-08T17:06:55.511Z,19.52
2022-10-08T17:09:22.679Z,18.50
2022-10-08T17:11:49.883Z,19.98
2022-10-08T17:14:16.914Z,17.15
2022-10-08T17:16:45.142Z,23.98
2022-10-08T17:19:12.633Z,20.45
2022-10-08T17:21:40.242Z,26.20
2022-10-08T17:24:08.015Z,27.65
2022-10-08T17:26:35.020Z,22.88
2022-10-08T17:29:09.269Z,16.08
2022-10-08T17:31:37.503Z,20.30
2022-10-08T17:34:05.830Z,23.20
2022-10-08T17:36:36.148Z,25.80
2022-10-08T17:39:06.387Z,30.38
2022-10-08T17:41:36.694Z,21.58
2022-10-08T17:44:07.578Z,20.85
2022-10-08T17:46:43.154Z,27.80
2022-10-08T17:49:10.515Z,28.88
2022-10-08T17:51:37.891Z,28.17
2022-10-08T17:54:10.447Z,27.75
2022-10-08T17:56:37.529Z,30.45
2022-10-08T17:59:04.538Z,24.75
2022-10-08T18:01:34.653Z,27.35
2022-10-08T18:04:11.149Z,26.15
2022-10-08T18:06:42.990Z,29.73
2022-10-08T18:09:27.939Z,38.30
2022-10-08T18:11:55.284Z,25.88
2022-10-08T18:14:22.606Z,28.83
2022-10-08T18:16:49.640Z,25.75
2022-10-08T18:19:17.976Z,31.88
2022-10-08T18:21:45.133Z,33.30
2022-10-08T18:24:12.219Z,26.30
2022-10-08T18:26:39.190Z,30.63
2022-10-08T18:29:11.710Z,22.65
2022-10-08T18:31:42.360Z,24.98
2022-10-08T18:34:15.060Z,24.05
2022-10-08T18:36:42.431Z,22.13
2022-10-08T18:39:23.525Z,24.45
2022-10-08T18:41:54.479Z,20.77
2022-10-08T18:44:25.033Z,27.52
2022-10-08T18:46:52.881Z,19.25
2022-10-08T18:49:30.544Z,23.92
2022-10-08T18:51:58.284Z,22.65
2022-10-08T18:54:25.527Z,23.33
2022-10-08T18:56:52.504Z,24.48
2022-10-08T18:59:19.800Z,24.33
2022-10-08T19:01:48.486Z,29.63
2022-10-08T19:04:20.159Z,22.60
2022-10-08T19:06:50.367Z,26.42
2022-10-08T19:09:17.938Z,23.10
2022-10-08T19:11:52.194Z,24.33
2022-10-08T19:14:22.031Z,21.20
2022-10-08T19:16:49.950Z,22.35
2022-10-08T19:19:22.969Z,25.20
2022-10-08T19:21:50.764Z,21.98
2022-10-08T19:24:21.329Z,26.83
2022-10-08T19:26:49.319Z,21.40
2022-10-08T19:29:23.340Z,25.63
2022-10-08T19:31:50.749Z,23.88
2022-10-08T19:34:21.985Z,20.60
2022-10-08T19:36:50.371Z,20.65
2022-10-08T19:39:21.507Z,20.05
2022-10-08T19:41:49.632Z,21.55
2022-10-08T19:44:17.645Z,19.25
2022-10-08T19:46:45.061Z,21.10
2022-10-08T19:49:12.258Z,21.10
2022-10-08T19:51:39.462Z,19.95
2022-10-08T19:54:06.919Z,19.65
2022-10-08T19:56:36.712Z,23.50
2022-10-08T19:59:04.725Z,17.77
2022-10-08T20:01:35.460Z,18.15
2022-10-08T20:04:05.091Z,17.45
2022-10-08T20:06:38.816Z,16.20
2022-10-08T20:09:07.768Z,20.27
2022-10-08T20:11:34.983Z,22.15
2022-10-08T20:14:02.382Z,19.30
2022-10-08T20:16:36.041Z,20.92
2022-10-08T20:19:13.473Z,14.75
2022-10-08T20:21:40.701Z,18.65
2022-10-08T20:24:07.926Z,19.42
2022-10-08T20:26:38.281Z,15.65
2022-10-08T20:29:13.191Z,15.95
2022-10-08T20:31:44.411Z,18.90
2022-10-08T20:34:17.735Z,19.17
2022-10-08T20:36:46.738Z,16.30
2022-10-08T20:39:16.306Z,20.90
2022-10-08T20:41:43.769Z,18.90
2022-10-08T20:44:10.807Z,16.67
2022-10-08T20:46:38.971Z,19.55
2022-10-08T20:49:07.292Z,15.30
2022-10-08T20:51:35.176Z,19.25
2022-10-08T20:54:08.306Z,21.52
2022-10-08T20:56:39.818Z,15.52
2022-10-08T20:59:09.738Z,16.70
2022-10-08T21:01:38.673Z,22.25
2022-10-08T21:04:06.980Z,25.65
2022-10-08T21:06:46.458Z,18.75
2022-10-08T21:09:15.895Z,16.08
2022-10-08T21:11:45.966Z,20.20
2022-10-08T21:14:21.485Z,20.30
2022-10-08T21:16:49.035Z,19.10
2022-10-08T21:19:19.176Z,20.98
2022-10-08T21:21:46.266Z,19.98
2022-10-08T21:24:13.417Z,18.08
2022-10-08T21:26:42.288Z,23.13
2022-10-08T21:29:12.653Z,17.38
2022-10-08T21:31:41.250Z,17.33
2022-10-08T21:34:10.239Z,16.02
2022-10-08T21:36:40.396Z,19.52
2022-10-08T21:39:13.379Z,16.38
2022-10-08T21:41:40.416Z,16.48
2022-10-08T21:44:08.855Z,20.38
2022-10-08T21:46:40.659Z,15.95
2022-10-08T21:49:13.314Z,12.77
2022-10-08T21:51:40.365Z,18.13
2022-10-08T21:54:08.134Z,14.75
2022-10-08T21:56:39.114Z,20.30
2022-10-08T21:59:08.437Z,19.15
2022-10-08T22:01:38.286Z,16.38
2022-10-08T22:04:11.337Z,17.85
2022-10-08T22:06:43.232Z,16.90
2022-10-08T22:09:18.960Z,18.00
2022-10-08T22:11:46.398Z,14.32
2022-10-08T22:14:14.424Z,16.15
2022-10-08T22:16:41.919Z,19.63
2022-10-08T22:19:09.222Z,14.50
2022-10-08T22:21:36.682Z,17.17
2022-10-08T22:24:04.566Z,14.55
2022-10-08T22:26:38.183Z,22.42
2022-10-08T22:29:06.441Z,18.02
2022-10-08T22:31:34.319Z,13.65
2022-10-08T22:34:01.584Z,15.80
2022-10-08T22:36:32.219Z,16.73
2022-10-08T22:39:00.055Z,18.67
2022-10-08T22:41:31.247Z,13.45
2022-10-08T22:43:59.501Z,22.15
2022-10-08T22:46:34.572Z,16.95
2022-10-08T22:49:09.541Z,14.43
2022-10-08T22:51:37.451Z,16.27
2022-10-08T22:54:05.256Z,10.05
2022-10-08T22:56:32.363Z,12.18
2022-10-08T22:59:00.592Z,13.88
2022-10-08T23:01:29.638Z,9.93
2022-10-08T23:03:57.273Z,9.70
2022-10-08T23:06:31.502Z,11.93
2022-10-08T23:09:04.612Z,9.75
2022-10-08T23:11:32.334Z,14.52
2022-10-08T23:14:01.019Z,9.85
2022-10-08T23:16:31.114Z,10.40
2022-10-08T23:19:05.814Z,12.10
2022-10-08T23:21:33.682Z,12.15
2022-10-08T23:24:01.148Z,10.88
2022-10-08T23:26:28.977Z,11.63
2022-10-08T23:29:00.104Z,9.38
2022-10-08T23:31:30.534Z,8.48
2022-10-08T23:33:58.060Z,10.88
2022-10-08T23:36:32.707Z,12.48
2022-10-08T23:39:00.142Z,15.13
2022-10-08T23:41:27.924Z,10.38
2022-10-08T23:43:57.004Z,10.63
2022-10-08T23:46:27.464Z,9.65
2022-10-08T23:48:55.596Z,8.32
2022-10-08T23:51:24.450Z,13.90
2022-10-08T23:53:52.807Z,9.95
2022-10-08T23:56:21.085Z,12.15
2022-10-08T23:58:48.803Z,7.50
